createdAt,value
2022-12-03T12:36:36.882Z,47.10
2022-12-03T12:55:33.933Z,44.70
2022-12-03T12:58:27.589Z,56.90
2022-12-03T13:01:22.528Z,48.20
2022-12-03T13:03:56.068Z,55.40
2022-12-03T13:07:20.649Z,45.10
2022-12-03T13:09:57.481Z,47.60
2022-12-03T13:12:29.934Z,53.30
2022-12-03T13:18:06.355Z,48.80
2022-12-03T13:24:25.067Z,53.10
2022-12-03T13:26:57.076Z,50.80
2022-12-03T13:29:30.022Z,50.90
2022-12-03T13:35:55.469Z,50.80
2022-12-03T13:38:29.791Z,46.40
2022-12-03T13:41:31.981Z,49.10
2022-12-03T13:44:09.333Z,63.90
2022-12-03T13:47:01.940Z,68.80
2022-12-03T13:49:36.473Z,56.80
2022-12-03T13:52:20.667Z,52.70
2022-12-03T13:54:55.308Z,60.60
2022-12-03T13:57:27.960Z,58.90
2022-12-03T14:00:01.448Z,56.60
2022-12-03T14:06:16.001Z,52.90
2022-12-03T14:11:56.539Z,44.20
2022-12-03T14:14:30.256Z,42.40
2022-12-03T14:17:06.868Z,52.50
2022-12-03T14:19:54.319Z,49.70
2022-12-03T14:24:59.472Z,45.80
2022-12-03T14:31:08.676Z,53.60
2022-12-03T14:33:55.210Z,55.40
2022-12-03T14:36:26.549Z,35.80
2022-12-03T14:38:56.683Z,44.50
2022-12-03T14:41:43.136Z,52.20
2022-12-03T14:44:11.298Z,44.10
2022-12-03T14:46:39.460Z,41.40
2022-12-03T14:49:08.152Z,44.50
2022-12-03T14:51:37.088Z,43.60
2022-12-03T15:04:32.941Z,42.60
2022-12-03T15:10:05.310Z,37.70
2022-12-03T15:12:41.657Z,36.00
2022-12-03T15:15:14.937Z,35.00
2022-12-03T16:07:51.151Z,47.90
2022-12-03T16:13:13.399Z,47.80
2022-12-03T16:15:53.242Z,45.20
2022-12-03T16:18:32.727Z,45.40
2022-12-03T16:21:04.486Z,43.60
2022-12-03T17:01:42.837Z,47.60
2022-12-03T17:04:12.977Z,58.60
2022-12-03T17:06:50.234Z,51.10
2022-12-03T17:09:22.120Z,46.40
2022-12-03T17:11:53.353Z,45.50
2022-12-03T17:14:44.566Z,51.00
2022-12-03T17:17:33.734Z,53.30
2022-12-03T17:20:22.487Z,51.80
2022-12-03T17:23:07.301Z,49.90
2022-12-03T17:25:56.904Z,51.30
2022-12-03T17:28:46.876Z,54.30
2022-12-03T17:31:41.453Z,56.70
2022-12-03T17:34:32.345Z,61.20
2022-12-03T17:37:21.224Z,49.30
2022-12-03T17:39:48.908Z,52.50
2022-12-03T17:42:19.671Z,58.10
2022-12-03T17:44:49.639Z,51.80
2022-12-03T17:47:17.512Z,50.10
2022-12-03T17:50:28.382Z,54.40
2022-12-03T17:53:21.051Z,56.00
2022-12-03T17:56:09.256Z,54.80
2022-12-03T17:58:58.039Z,53.20
2022-12-03T18:01:47.250Z,54.40
2022-12-03T18:04:22.218Z,53.10
2022-12-03T18:07:44.220Z,51.80
2022-12-03T18:10:52.241Z,50.10
2022-12-03T18:13:43.100Z,58.90
2022-12-03T18:16:37.618Z,52.60
2022-12-03T18:19:26.539Z,54.50
2022-12-03T18:21:55.858Z,58.80
2022-12-03T18:24:26.540Z,49.20
2022-12-03T18:27:14.996Z,49.80
2022-12-03T18:29:46.780Z,57.90
2022-12-03T18:32:36.590Z,48.40
2022-12-03T18:35:10.656Z,59.90
2022-12-03T18:37:40.708Z,54.90
2022-12-03T18:40:32.015Z,53.60
2022-12-03T18:43:22.924Z,49.40
2022-12-03T18:46:31.051Z,70.20
2022-12-03T18:49:04.203Z,57.30
2022-12-03T18:51:59.051Z,53.50
2022-12-03T18:54:49.909Z,53.00
2022-12-03T18:57:42.714Z,53.30
2022-12-03T19:00:33.630Z,47.10
2022-12-03T19:03:26.012Z,50.90
2022-12-03T19:06:19.105Z,56.00
2022-12-03T19:08:54.978Z,57.90
2022-12-03T19:11:46.279Z,51.20
2022-12-03T19:14:39.375Z,52.50
2022-12-03T19:17:30.278Z,51.00
2022-12-03T19:20:20.751Z,57.90
2022-12-03T19:22:51.100Z,52.40
2022-12-03T19:25:42.700Z,53.00
2022-12-03T19:28:34.126Z,60.00
2022-12-03T19:31:23.141Z,57.10
2022-12-03T19:34:16.347Z,64.30
2022-12-03T19:37:08.553Z,58.70
2022-12-03T19:40:01.685Z,62.40
2022-12-03T19:42:35.128Z,60.40
2022-12-03T19:46:23.781Z,69.10
2022-12-03T19:48:55.486Z,73.50
2022-12-03T19:51:36.758Z,60.70
2022-12-03T19:54:31.751Z,68.00
2022-12-03T19:57:24.759Z,66.20
2022-12-03T20:00:19.999Z,53.80
2022-12-03T20:03:17.867Z,58.20
2022-12-03T20:05:53.294Z,64.20
2022-12-03T20:08:34.971Z,63.00
2022-12-03T20:11:32.281Z,77.30
2022-12-03T20:14:29.314Z,65.90
2022-12-03T20:17:04.433Z,65.00
2022-12-03T20:20:02.103Z,60.70
2022-12-03T20:23:13.373Z,69.00
2022-12-03T20:25:54.791Z,60.10
2022-12-03T20:28:56.841Z,60.80
2022-12-03T20:31:49.410Z,78.40
2022-12-03T20:34:43.619Z,69.10
2022-12-03T20:37:40.233Z,63.10
2022-12-03T20:40:42.149Z,65.90
2022-12-03T20:43:36.706Z,67.20
2022-12-03T20:46:40.961Z,52.40
2022-12-03T20:49:46.319Z,56.10
2022-12-03T20:52:20.690Z,64.40
2022-12-03T20:55:16.461Z,57.70
2022-12-03T20:58:11.064Z,63.90
2022-12-03T21:00:44.868Z,56.30
2022-12-03T21:03:51.376Z,59.80
2022-12-03T21:06:45.481Z,61.60
2022-12-03T21:09:18.473Z,57.50
2022-12-03T21:12:10.154Z,59.60
2022-12-03T21:15:03.506Z,60.00
2022-12-03T21:17:56.941Z,69.00
2022-12-03T21:20:51.114Z,67.60
2022-12-03T21:23:22.159Z,64.20
2022-12-03T21:26:16.631Z,71.20
2022-12-03T21:28:52.343Z,71.80
2022-12-03T21:31:48.410Z,63.90
2022-12-03T21:34:59.557Z,65.00
2022-12-03T21:37:53.023Z,67.70
2022-12-03T21:40:44.666Z,66.60
2022-12-03T21:43:42.132Z,61.30
2022-12-03T21:47:09.747Z,67.70
2022-12-03T21:49:32.365Z,77.00
2022-12-03T21:52:34.908Z,71.80
2022-12-03T21:55:26.272Z,74.40
2022-12-03T21:58:31.612Z,50.70
2022-12-03T22:01:29.452Z,64.10
2022-12-03T22:04:35.757Z,60.70
2022-12-03T22:07:06.985Z,65.40
2022-12-03T22:10:05.380Z,71.00
2022-12-03T22:13:00.339Z,64.60
2022-12-03T22:15:38.363Z,67.80
2022-12-03T22:18:39.523Z,66.60
2022-12-03T22:21:13.703Z,68.70
2022-12-03T22:23:45.694Z,68.40
2022-12-03T22:26:40.468Z,76.20
2022-12-03T22:29:49.171Z,65.90
2022-12-03T22:32:24.686Z,63.00
2022-12-03T22:35:29.911Z,56.30
2022-12-03T22:38:23.941Z,66.20
2022-12-03T22:41:27.026Z,71.70
2022-12-03T22:44:29.304Z,66.40
2022-12-03T22:47:22.301Z,76.80
2022-12-03T22:50:17.407Z,70.90
2022-12-03T22:52:49.136Z,74.70
2022-12-03T22:55:42.245Z,62.90
2022-12-03T22:58:33.189Z,60.70
2022-12-03T23:01:29.558Z,69.00
2022-12-03T23:04:04.856Z,68.30
2022-12-03T23:07:00.517Z,64.30
2022-12-03T23:09:54.940Z,66.60
2022-12-03T23:12:27.665Z,56.30
2022-12-03T23:14:58.621Z,61.40
2022-12-03T23:17:34.548Z,70.20
2022-12-03T23:20:06.756Z,70.00
2022-12-03T23:22:37.277Z,56.50
2022-12-03T23:25:12.460Z,58.40
2022-12-03T23:27:45.504Z,71.20
2022-12-03T23:30:17.957Z,63.60
2022-12-03T23:33:10.938Z,59.90
2022-12-03T23:35:43.656Z,56.70
2022-12-03T23:38:14.890Z,54.10
2022-12-03T23:40:48.216Z,58.20
2022-12-03T23:43:19.126Z,64.70
2022-12-03T23:45:51.845Z,68.90
2022-12-03T23:48:22.308Z,64.80
2022-12-03T23:50:53.333Z,66.60
2022-12-03T23:53:23.898Z,64.20
2022-12-03T23:56:10.160Z,59.40
2022-12-03T23:58:41.909Z,70.40
